Time;durP1;ratioP1;P1;durP2;ratioP2;P2;SDS_P1;SDS_P2;PMS_P1;PMS_P2;Temp;Humidity;BMP_temperature;BMP_pressure;BME280_temperature;BME280_humidity;BME280_pressure;Samples;Min_cycle;Max_cycle;Signal;HPM_P1;HPM_P2
2022/12/15 00:39:20;;;;;;;;;;;;;;;;;;5031748;28;19921;-81
2022/12/15 00:42:06;;;;;;;;;;;;;;;;;;5045811;28;19923;-81
2022/12/15 00:44:53;;;;;;;;;;;;;;;;;;5038206;28;20383;-80
2022/12/15 00:47:39;;;;;;;;;;;;;;;;;;5046308;28;19909;-81
2022/12/15 01:21:19;;;;;;;;;;;;;;;;;;5045305;28;19913;-80
2022/12/15 01:24:06;;;;;;;;;;;;;;;;;;5035542;28;19913;-80
2022/12/15 01:26:52;;;;;;;;;;;;;;;;;;5038573;28;19913;-78
2022/12/15 01:29:39;;;;;;;;;;;;;;;;;;5027451;28;19909;-78
2022/12/15 01:32:26;;;;;;;;;;;;;;;;;;5045805;28;20352;-78
2022/12/15 01:35:13;;;;;;;;;;;;;;;;;;5036538;28;19913;-79
2022/12/15 01:37:59;;;;;;;;;;;;;;;;;;5041850;28;19924;-80
2022/12/15 01:40:45;;;;;;;;;;;;;;;;;;5027195;28;19928;-79
2022/12/15 01:43:32;;;;;;;;;;;;;;;;;;5048516;28;20319;-79
2022/12/15 01:46:18;;;;;;;;;;;;;;;;;;5043637;28;19953;-79
2022/12/15 01:49:05;;;;;;;;;;;;;;;;;;5036258;28;19983;-80
2022/12/15 01:51:52;;;;;;;;;;;;;;;;;;5041278;28;19917;-79
2022/12/15 01:54:39;;;;;;;;;;;;;;;;;;5041531;28;19917;-78
2022/12/15 01:57:25;;;;;;;;;;;;;;;;;;5033516;28;19932;-80
2022/12/15 02:00:12;;;;;;;;;;;;;;;;;;5044196;28;19913;-79
2022/12/15 02:02:58;;;;;;;;;;;;;;;;;;5038279;28;19924;-79
2022/12/15 02:05:45;;;;;;;;;;;;;;;;;;5040354;28;19931;-79
2022/12/15 02:08:31;;;;;;;;;;;;;;;;;;5035243;28;20514;-79
2022/12/15 02:11:18;;;;;;;;;;;;;;;;;;5037624;28;19912;-79
2022/12/15 02:14:04;;;;;;;;;;;;;;;;;;5036579;28;19923;-79
2022/12/15 02:16:51;;;;;;;;;;;;;;;;;;5029716;28;19928;-79
2022/12/15 02:19:37;;;;;;;;;;;;;;;;;;5032713;28;19909;-79
2022/12/15 02:22:23;;;;;;;;;;;;;;;;;;5032368;28;20262;-79
2022/12/15 02:25:10;;;;;;;;;;;;;;;;;;5036979;28;19928;-80
2022/12/15 02:27:58;;;;;;;;;;;;;;;;;;5039889;28;20711;-79
2022/12/15 02:30:44;;;;;;;;;;;;;;;;;;5031136;28;19963;-80
2022/12/15 02:33:30;;;;;;;;;;;;;;;;;;5045591;28;19919;-81
2022/12/15 02:36:17;;;;;;;;;;;;;;;;;;5043760;28;19912;-80
2022/12/15 02:39:03;;;;;;;;;;;;;;;;;;5041546;28;19924;-80
2022/12/15 02:41:51;;;;;;;;;;;;;;;;;;5035898;28;19939;-80
2022/12/15 02:44:38;;;;;;;;;;;;;;;;;;5042338;28;19923;-78
2022/12/15 02:47:24;;;;;;;;;;;;;;;;;;5037759;28;19916;-78
2022/12/15 02:50:11;;;;;;;;;;;;;;;;;;5039001;28;19912;-80
2022/12/15 02:52:57;;;;;;;;;;;;;;;;;;5025186;28;19924;-80
2022/12/15 02:55:45;;;;;;;;;;;;;;;;;;5045147;28;19917;-80
2022/12/15 02:58:32;;;;;;;;;;;;;;;;;;5040076;28;19932;-80
2022/12/15 03:01:18;;;;;;;;;;;;;;;;;;5034337;28;20369;-80
2022/12/15 03:04:04;;;;;;;;;;;;;;;;;;5041635;28;19917;-80
2022/12/15 03:06:51;;;;;;;;;;;;;;;;;;5032459;28;20369;-79
2022/12/15 03:09:37;;;;;;;;;;;;;;;;;;5040791;28;20003;-80
2022/12/15 03:12:24;;;;;;;;;;;;;;;;;;5042954;28;19913;-79
2022/12/15 03:15:10;;;;;;;;;;;;;;;;;;5026527;28;20448;-80
2022/12/15 03:17:57;;;;;;;;;;;;;;;;;;5039771;28;19925;-80
2022/12/15 03:20:44;;;;;;;;;;;;;;;;;;5035406;28;19916;-78
2022/12/15 03:23:30;;;;;;;;;;;;;;;;;;5036578;28;20356;-80
2022/12/15 03:26:17;;;;;;;;;;;;;;;;;;5029116;28;19921;-79
2022/12/15 03:29:03;;;;;;;;;;;;;;;;;;5033494;28;20403;-80
2022/12/15 03:31:49;;;;;;;;;;;;;;;;;;5036670;28;19920;-80
2022/12/15 03:34:36;;;;;;;;;;;;;;;;;;5031787;28;19917;-82
2022/12/15 03:37:23;;;;;;;;;;;;;;;;;;5039809;28;19943;-82
2022/12/15 03:40:09;;;;;;;;;;;;;;;;;;5039297;28;20369;-81
2022/12/15 03:42:57;;;;;;;;;;;;;;;;;;5047220;28;19923;-82
2022/12/15 03:45:44;;;;;;;;;;;;;;;;;;5039705;28;19912;-81
2022/12/15 03:48:30;;;;;;;;;;;;;;;;;;5037732;28;19917;-82
2022/12/15 03:51:16;;;;;;;;;;;;;;;;;;5039336;28;20292;-81
2022/12/15 03:54:03;;;;;;;;;;;;;;;;;;5039094;28;19924;-82
2022/12/15 03:56:50;;;;;;;;;;;;;;;;;;5025972;28;19932;-81
2022/12/15 03:59:36;;;;;;;;;;;;;;;;;;5030718;28;20377;-82
2022/12/15 04:02:23;;;;;;;;;;;;;;;;;;5042414;28;19913;-82
2022/12/15 04:05:09;;;;;;;;;;;;;;;;;;5015887;28;19951;-79
2022/12/15 04:07:56;;;;;;;;;;;;;;;;;;5042512;28;19916;-80
2022/12/15 04:10:42;;;;;;;;;;;;;;;;;;5031927;28;19920;-78
2022/12/15 04:13:29;;;;;;;;;;;;;;;;;;5042114;28;19921;-77
2022/12/15 04:16:15;;;;;;;;;;;;;;;;;;5046221;28;19919;-77
2022/12/15 04:22:13;;;;;;;;;;;;;;;;;;5041809;28;20408;-78
2022/12/15 05:32:57;;;;;;;;;;;;;;;;;;5045781;28;19917;-79
2022/12/15 05:35:43;;;;;;;;;;;;;;;;;;5044304;28;20368;-79
2022/12/15 05:38:29;;;;;;;;;;;;;;;;;;5038980;28;19931;-79
2022/12/15 05:41:16;;;;;;;;;;;;;;;;;;5043361;28;19927;-78
2022/12/15 05:44:03;;;;;;;;;;;;;;;;;;5043783;28;20267;-78
2022/12/15 05:46:49;;;;;;;;;;;;;;;;;;5041699;28;19920;-79
2022/12/15 05:49:36;;;;;;;;;;;;;;;;;;5043524;28;19992;-81
2022/12/15 05:52:22;;;;;;;;;;;;;;;;;;5028343;28;19917;-81
2022/12/15 05:55:09;;;;;;;;;;;;;;;;;;5036852;28;19917;-81
2022/12/15 05:57:55;;;;;;;;;;;;;;;;;;5037194;28;19931;-80
2022/12/15 06:00:42;;;;;;;;;;;;;;;;;;5038849;28;20365;-82
2022/12/15 06:03:28;;;;;;;;;;;;;;;;;;5041051;28;19925;-81
2022/12/15 06:06:15;;;;;;;;;;;;;;;;;;5046326;28;19917;-80
2022/12/15 06:09:02;;;;;;;;;;;;;;;;;;5042064;28;19924;-81
2022/12/15 06:11:48;;;;;;;;;;;;;;;;;;5030155;28;20395;-80
2022/12/15 06:14:35;;;;;;;;;;;;;;;;;;5045789;28;19921;-80
2022/12/15 06:17:21;;;;;;;;;;;;;;;;;;5037584;28;19925;-80
2022/12/15 06:20:08;;;;;;;;;;;;;;;;;;5037500;28;20452;-80
2022/12/15 06:22:54;;;;;;;;;;;;;;;;;;5047912;28;20280;-80
2022/12/15 06:25:41;;;;;;;;;;;;;;;;;;5044150;28;19928;-80
2022/12/15 06:28:28;;;;;;;;;;;;;;;;;;5048735;28;19921;-80
2022/12/15 06:31:18;;;;;;;;;;;;;;;;;;5049249;28;19913;-79
2022/12/15 06:34:05;;;;;;;;;;;;;;;;;;5050894;28;19917;-80
2022/12/15 06:36:51;;;;;;;;;;;;;;;;;;5037156;28;19936;-80
2022/12/15 06:39:38;;;;;;;;;;;;;;;;;;5049645;28;19929;-78
2022/12/15 06:42:27;;;;;;;;;;;;;;;;;;5035275;28;20273;-81
2022/12/15 06:45:17;;;;;;;;;;;;;;;;;;5038574;28;19964;-81
2022/12/15 06:48:03;;;;;;;;;;;;;;;;;;5050607;28;19913;-80
2022/12/15 06:50:50;;;;;;;;;;;;;;;;;;5042279;28;19909;-79
2022/12/15 06:53:44;;;;;;;;;;;;;;;;;;5034279;28;19932;-81
2022/12/15 06:56:30;;;;;;;;;;;;;;;;;;5041090;28;20328;-81
2022/12/15 06:59:17;;;;;;;;;;;;;;;;;;5040968;28;19949;-83
2022/12/15 07:02:04;;;;;;;;;;;;;;;;;;5040292;28;20355;-82
2022/12/15 07:04:50;;;;;;;;;;;;;;;;;;5027322;28;19918;-83
2022/12/15 07:07:37;;;;;;;;;;;;;;;;;;5029695;28;20336;-83
2022/12/15 07:10:23;;;;;;;;;;;;;;;;;;5038312;28;20267;-82
2022/12/15 07:13:10;;;;;;;;;;;;;;;;;;5038400;28;19928;-80
2022/12/15 07:15:57;;;;;;;;;;;;;;;;;;5043716;28;19917;-81
2022/12/15 07:18:44;;;;;;;;;;;;;;;;;;5041740;28;19932;-81
2022/12/15 07:21:30;;;;;;;;;;;;;;;;;;5038672;28;20008;-81
2022/12/15 07:24:17;;;;;;;;;;;;;;;;;;5031795;28;19917;-81
2022/12/15 07:27:03;;;;;;;;;;;;;;;;;;5031443;28;19917;-81
2022/12/15 07:29:50;;;;;;;;;;;;;;;;;;5037559;28;19921;-81
2022/12/15 07:32:36;;;;;;;;;;;;;;;;;;5036365;28;19920;-81
2022/12/15 07:35:23;;;;;;;;;;;;;;;;;;5035872;28;19916;-80
2022/12/15 07:38:09;;;;;;;;;;;;;;;;;;5028685;28;19975;-81
2022/12/15 07:40:56;;;;;;;;;;;;;;;;;;5035642;28;19931;-83
2022/12/15 07:43:44;;;;;;;;;;;;;;;;;;5027009;28;19917;-81
2022/12/15 07:46:30;;;;;;;;;;;;;;;;;;5020918;28;19932;-81
2022/12/15 07:49:17;;;;;;;;;;;;;;;;;;5020595;28;19917;-81
2022/12/15 07:52:03;;;;;;;;;;;;;;;;;;5030095;28;19922;-80
2022/12/15 07:54:50;;;;;;;;;;;;;;;;;;5028854;28;19916;-81
2022/12/15 07:57:36;;;;;;;;;;;;;;;;;;5034748;28;20289;-82
2022/12/15 08:00:23;;;;;;;;;;;;;;;;;;5026668;28;19924;-81
2022/12/15 08:03:09;;;;;;;;;;;;;;;;;;5043729;28;19921;-81
2022/12/15 08:05:56;;;;;;;;;;;;;;;;;;5038833;28;20288;-81
2022/12/15 08:08:42;;;;;;;;;;;;;;;;;;5028929;28;20291;-80
2022/12/15 08:11:33;;;;;;;;;;;;;;;;;;5029720;28;19919;-80
2022/12/15 08:14:19;;;;;;;;;;;;;;;;;;5042605;28;19924;-81
2022/12/15 08:17:06;;;;;;;;;;;;;;;;;;5025463;28;19917;-82
2022/12/15 08:19:52;;;;;;;;;;;;;;;;;;5030041;28;20115;-81
2022/12/15 08:22:39;;;;;;;;;;;;;;;;;;5040462;28;19917;-81
2022/12/15 08:25:27;;;;;;;;;;;;;;;;;;5039133;28;19917;-80
2022/12/15 08:28:14;;;;;;;;;;;;;;;;;;5031362;28;19917;-80
2022/12/15 08:31:00;;;;;;;;;;;;;;;;;;5036109;28;19912;-81
2022/12/15 08:33:47;;;;;;;;;;;;;;;;;;5031494;28;20373;-81
2022/12/15 08:36:33;;;;;;;;;;;;;;;;;;5041591;28;19916;-82
2022/12/15 08:39:20;;;;;;;;;;;;;;;;;;5025507;28;19922;-81
2022/12/15 08:42:06;;;;;;;;;;;;;;;;;;5039891;28;19917;-82
2022/12/15 08:44:53;;;;;;;;;;;;;;;;;;5033974;28;19917;-83
2022/12/15 08:47:39;;;;;;;;;;;;;;;;;;5031457;28;19909;-82
2022/12/15 08:50:26;;;;;;;;;;;;;;;;;;5036766;28;19927;-83
2022/12/15 08:53:12;;;;;;;;;;;;;;;;;;5042820;28;20376;-81
2022/12/15 08:55:59;;;;;;;;;;;;;;;;;;5038568;28;20276;-81
2022/12/15 08:58:45;;;;;;;;;;;;;;;;;;5045674;28;19928;-80
2022/12/15 09:01:32;;;;;;;;;;;;;;;;;;5042860;28;19917;-82
2022/12/15 09:04:18;;;;;;;;;;;;;;;;;;5043426;28;19917;-81
2022/12/15 09:07:05;;;;;;;;;;;;;;;;;;5043649;28;20320;-80
2022/12/15 09:09:51;;;;;;;;;;;;;;;;;;5041976;28;19917;-82
2022/12/15 09:12:38;;;;;;;;;;;;;;;;;;5043716;28;19923;-83
2022/12/15 09:15:25;;;;;;;;;;;;;;;;;;5042543;28;20505;-81
2022/12/15 09:18:11;;;;;;;;;;;;;;;;;;5043635;28;19924;-82
2022/12/15 09:20:58;;;;;;;;;;;;;;;;;;5042398;28;19920;-82
2022/12/15 09:23:44;;;;;;;;;;;;;;;;;;5028997;28;19917;-83
2022/12/15 09:26:31;;;;;;;;;;;;;;;;;;5042173;28;19923;-82
2022/12/15 09:29:18;;;;;;;;;;;;;;;;;;5040269;28;20296;-82
2022/12/15 09:32:04;;;;;;;;;;;;;;;;;;5041779;28;19913;-81
2022/12/15 09:34:51;;;;;;;;;;;;;;;;;;5040581;28;19930;-80
2022/12/15 09:37:37;;;;;;;;;;;;;;;;;;5044212;28;19927;-81
2022/12/15 09:40:24;;;;;;;;;;;;;;;;;;5041799;28;20418;-80
2022/12/15 09:43:11;;;;;;;;;;;;;;;;;;5039387;28;19912;-82
2022/12/15 09:45:57;;;;;;;;;;;;;;;;;;5041425;28;19983;-81
2022/12/15 09:48:44;;;;;;;;;;;;;;;;;;5040119;28;19924;-80
2022/12/15 09:51:30;;;;;;;;;;;;;;;;;;5041236;28;19983;-82
2022/12/15 09:54:17;;;;;;;;;;;;;;;;;;5039783;28;20372;-82
2022/12/15 09:57:03;;;;;;;;;;;;;;;;;;5023379;28;19920;-80
2022/12/15 09:59:50;;;;;;;;;;;;;;;;;;5041166;28;19921;-80
2022/12/15 10:02:36;;;;;;;;;;;;;;;;;;5039062;28;19917;-81
2022/12/15 10:05:23;;;;;;;;;;;;;;;;;;5038941;28;19916;-80
2022/12/15 10:08:09;;;;;;;;;;;;;;;;;;5039914;28;19913;-80
2022/12/15 10:10:56;;;;;;;;;;;;;;;;;;5040622;28;19919;-79
2022/12/15 10:13:42;;;;;;;;;;;;;;;;;;5043713;28;19917;-81
2022/12/15 10:16:29;;;;;;;;;;;;;;;;;;5043079;28;19924;-81
2022/12/15 10:19:15;;;;;;;;;;;;;;;;;;5038051;28;19940;-81
2022/12/15 10:22:02;;;;;;;;;;;;;;;;;;5039586;28;19923;-81
2022/12/15 10:24:48;;;;;;;;;;;;;;;;;;5043265;28;19924;-81
2022/12/15 10:27:35;;;;;;;;;;;;;;;;;;5029470;28;20279;-81
2022/12/15 10:30:21;;;;;;;;;;;;;;;;;;5039896;28;19913;-83
2022/12/15 10:33:08;;;;;;;;;;;;;;;;;;5042671;28;19919;-80
2022/12/15 10:35:54;;;;;;;;;;;;;;;;;;5040006;28;19916;-78
2022/12/15 10:38:44;;;;;;;;;;;;;;;;;;5037311;28;19921;-80
2022/12/15 10:41:30;;;;;;;;;;;;;;;;;;5033338;28;19932;-81
2022/12/15 10:44:17;;;;;;;;;;;;;;;;;;5035544;28;19924;-82
2022/12/15 10:47:03;;;;;;;;;;;;;;;;;;5033721;28;19921;-79
2022/12/15 10:49:50;;;;;;;;;;;;;;;;;;5039663;28;19939;-80
2022/12/15 10:52:36;;;;;;;;;;;;;;;;;;5046025;28;19920;-80
2022/12/15 10:55:23;;;;;;;;;;;;;;;;;;5038630;28;19927;-80
2022/12/15 10:58:09;;;;;;;;;;;;;;;;;;5034468;28;19929;-80
2022/12/15 11:00:55;;;;;;;;;;;;;;;;;;5043497;28;19917;-81
2022/12/15 11:03:42;;;;;;;;;;;;;;;;;;5041689;28;19909;-80
2022/12/15 11:06:29;;;;;;;;;;;;;;;;;;5023216;28;19924;-81
2022/12/15 11:09:15;;;;;;;;;;;;;;;;;;5034915;28;19913;-80
2022/12/15 11:15:07;;;;;;;;;;;;;;;;;;5035024;28;19924;-80
2022/12/15 11:17:53;;;;;;;;;;;;;;;;;;5042939;28;20282;-80
2022/12/15 11:20:40;;;;;;;;;;;;;;;;;;5032935;28;19909;-80
2022/12/15 11:23:26;;;;;;;;;;;;;;;;;;5027170;28;20000;-81
2022/12/15 11:26:13;;;;;;;;;;;;;;;;;;5027193;28;19913;-80
2022/12/15 11:28:59;;;;;;;;;;;;;;;;;;5038664;28;19913;-82
2022/12/15 11:31:46;;;;;;;;;;;;;;;;;;5029793;28;19917;-80
2022/12/15 11:34:32;;;;;;;;;;;;;;;;;;5036981;28;19920;-80
2022/12/15 11:37:19;;;;;;;;;;;;;;;;;;5036494;28;19935;-80
2022/12/15 11:40:05;;;;;;;;;;;;;;;;;;5039775;28;19928;-80
2022/12/15 11:42:52;;;;;;;;;;;;;;;;;;5026217;28;19923;-80
2022/12/15 11:45:39;;;;;;;;;;;;;;;;;;5032112;28;19913;-82
2022/12/15 11:48:25;;;;;;;;;;;;;;;;;;5038873;28;19940;-81
2022/12/15 11:51:12;;;;;;;;;;;;;;;;;;5031427;28;19928;-80
2022/12/15 11:53:58;;;;;;;;;;;;;;;;;;5043140;28;20292;-80
2022/12/15 11:56:45;;;;;;;;;;;;;;;;;;5042022;28;19914;-80
2022/12/15 11:59:47;;;;;;;;;;;;;;;;;;5045074;28;19921;-80
2022/12/15 12:02:33;;;;;;;;;;;;;;;;;;5045890;28;19917;-82
2022/12/15 12:05:20;;;;;;;;;;;;;;;;;;5045581;28;20391;-81
2022/12/15 12:08:06;;;;;;;;;;;;;;;;;;5030487;28;19917;-80
2022/12/15 12:10:53;;;;;;;;;;;;;;;;;;5044160;28;19924;-79
2022/12/15 12:13:40;;;;;;;;;;;;;;;;;;5047368;28;19919;-80
2022/12/15 12:16:26;;;;;;;;;;;;;;;;;;5031215;28;19918;-81
2022/12/15 12:19:13;;;;;;;;;;;;;;;;;;5044857;28;19928;-80
2022/12/15 12:22:00;;;;;;;;;;;;;;;;;;5044921;28;20296;-80
2022/12/15 12:24:46;;;;;;;;;;;;;;;;;;5042218;28;19923;-81
2022/12/15 12:27:33;;;;;;;;;;;;;;;;;;5041184;28;19940;-80
2022/12/15 12:30:20;;;;;;;;;;;;;;;;;;5047507;28;19908;-79
2022/12/15 12:33:06;;;;;;;;;;;;;;;;;;5044031;28;19967;-81
2022/12/15 12:35:54;;;;;;;;;;;;;;;;;;5045261;28;19912;-81
2022/12/15 12:38:45;;;;;;;;;;;;;;;;;;5045122;28;19925;-80
2022/12/15 12:41:31;;;;;;;;;;;;;;;;;;5043703;28;19931;-80
2022/12/15 12:44:18;;;;;;;;;;;;;;;;;;5045236;28;19917;-81
2022/12/15 12:47:04;;;;;;;;;;;;;;;;;;5043976;28;19920;-80
2022/12/15 12:49:51;;;;;;;;;;;;;;;;;;5041645;28;19921;-81
2022/12/15 12:52:38;;;;;;;;;;;;;;;;;;5040044;28;19921;-81
2022/12/15 12:55:25;;;;;;;;;;;;;;;;;;5043638;28;19924;-82
2022/12/15 12:58:11;;;;;;;;;;;;;;;;;;5029539;28;19924;-83
2022/12/15 13:00:58;;;;;;;;;;;;;;;;;;5041289;28;19916;-80
2022/12/15 13:03:45;;;;;;;;;;;;;;;;;;5043945;28;19927;-80
2022/12/15 13:06:31;;;;;;;;;;;;;;;;;;5040581;28;19913;-81
2022/12/15 13:09:18;;;;;;;;;;;;;;;;;;5042062;28;19928;-80
2022/12/15 13:12:04;;;;;;;;;;;;;;;;;;5038514;28;19948;-79
2022/12/15 13:14:51;;;;;;;;;;;;;;;;;;5040810;28;20329;-83
2022/12/15 13:17:37;;;;;;;;;;;;;;;;;;5040566;28;19921;-84
2022/12/15 13:20:24;;;;;;;;;;;;;;;;;;5037059;28;20102;-82
2022/12/15 13:23:11;;;;;;;;;;;;;;;;;;5029618;28;19924;-84
2022/12/15 13:25:57;;;;;;;;;;;;;;;;;;5021125;28;19917;-82
2022/12/15 13:28:44;;;;;;;;;;;;;;;;;;5038714;28;19920;-82
2022/12/15 13:31:30;;;;;;;;;;;;;;;;;;5043940;28;19923;-81
2022/12/15 13:34:17;;;;;;;;;;;;;;;;;;5032682;28;19921;-85
2022/12/15 13:37:03;;;;;;;;;;;;;;;;;;5032662;28;20407;-82
2022/12/15 13:39:50;;;;;;;;;;;;;;;;;;5028955;28;19921;-80
2022/12/15 13:42:36;;;;;;;;;;;;;;;;;;5037758;28;20291;-80
2022/12/15 13:45:23;;;;;;;;;;;;;;;;;;5042171;28;20494;-81
2022/12/15 13:48:09;;;;;;;;;;;;;;;;;;5032750;28;19916;-81
2022/12/15 13:50:56;;;;;;;;;;;;;;;;;;5036236;28;19928;-81
2022/12/15 13:53:43;;;;;;;;;;;;;;;;;;5037175;28;20000;-80
2022/12/15 13:56:29;;;;;;;;;;;;;;;;;;5031315;28;19916;-82
2022/12/15 13:59:16;;;;;;;;;;;;;;;;;;5045257;28;19932;-81
2022/12/15 14:02:02;;;;;;;;;;;;;;;;;;5030190;28;19924;-82
2022/12/15 14:04:49;;;;;;;;;;;;;;;;;;5039120;28;19913;-80
2022/12/15 14:07:35;;;;;;;;;;;;;;;;;;5034798;28;19923;-81
2022/12/15 14:10:22;;;;;;;;;;;;;;;;;;5033474;28;19912;-81
2022/12/15 14:13:08;;;;;;;;;;;;;;;;;;5029578;28;19912;-81
2022/12/15 14:15:55;;;;;;;;;;;;;;;;;;5037111;28;20265;-82
2022/12/15 14:18:42;;;;;;;;;;;;;;;;;;5041211;28;19921;-81
2022/12/15 14:21:29;;;;;;;;;;;;;;;;;;5035816;28;19920;-81
2022/12/15 14:24:15;;;;;;;;;;;;;;;;;;5029043;28;19920;-80
2022/12/15 14:27:02;;;;;;;;;;;;;;;;;;5044245;28;19936;-81
2022/12/15 14:29:48;;;;;;;;;;;;;;;;;;5039794;28;19916;-79
2022/12/15 14:32:35;;;;;;;;;;;;;;;;;;5042533;28;19917;-82
2022/12/15 14:35:21;;;;;;;;;;;;;;;;;;5038233;28;19912;-82
2022/12/15 14:38:08;;;;;;;;;;;;;;;;;;5042952;28;20618;-82
2022/12/15 14:40:54;;;;;;;;;;;;;;;;;;5032376;28;20701;-78
2022/12/15 14:43:41;;;;;;;;;;;;;;;;;;5041729;28;20547;-77
2022/12/15 14:46:27;;;;;;;;;;;;;;;;;;5041858;28;20000;-77
2022/12/15 14:49:14;;;;;;;;;;;;;;;;;;5030326;28;19917;-77
2022/12/15 14:52:01;;;;;;;;;;;;;;;;;;5045078;28;19919;-79
2022/12/15 14:54:48;;;;;;;;;;;;;;;;;;5040487;28;19920;-78
2022/12/15 14:57:34;;;;;;;;;;;;;;;;;;5041468;28;19917;-77
2022/12/15 15:00:39;;;;;;;;;;;;;;;;;;5029454;28;20289;-80
2022/12/15 15:03:26;;;;;;;;;;;;;;;;;;5041431;28;20506;-80
2022/12/15 15:06:12;;;;;;;;;;;;;;;;;;5042464;28;20525;-79
2022/12/15 15:08:59;;;;;;;;;;;;;;;;;;5043283;28;19912;-79
2022/12/15 15:11:45;;;;;;;;;;;;;;;;;;5042449;28;19919;-79
2022/12/15 15:14:32;;;;;;;;;;;;;;;;;;5042663;28;19916;-79
2022/12/15 15:17:18;;;;;;;;;;;;;;;;;;5045196;28;20377;-80
2022/12/15 15:20:13;;;;;;;;;;;;;;;;;;5045262;28;19928;-80
2022/12/15 15:23:00;;;;;;;;;;;;;;;;;;5029060;28;19931;-80
2022/12/15 15:25:46;;;;;;;;;;;;;;;;;;5048228;28;19921;-80
2022/12/15 15:28:33;;;;;;;;;;;;;;;;;;5046502;28;19923;-80
2022/12/15 15:31:19;;;;;;;;;;;;;;;;;;5046905;28;19959;-80
2022/12/15 15:34:06;;;;;;;;;;;;;;;;;;5047276;28;19958;-82
2022/12/15 15:36:53;;;;;;;;;;;;;;;;;;5046740;28;19959;-81
2022/12/15 15:39:40;;;;;;;;;;;;;;;;;;5048388;28;19921;-82
2022/12/15 15:42:26;;;;;;;;;;;;;;;;;;5040722;28;19917;-82
2022/12/15 15:45:13;;;;;;;;;;;;;;;;;;5049725;28;19913;-83
2022/12/15 15:48:00;;;;;;;;;;;;;;;;;;5042819;28;19927;-84
2022/12/15 15:50:46;;;;;;;;;;;;;;;;;;5031028;28;19917;-82
2022/12/15 15:53:32;;;;;;;;;;;;;;;;;;5037756;28;19913;-82
2022/12/15 15:56:19;;;;;;;;;;;;;;;;;;5038622;28;19909;-80
2022/12/15 15:59:06;;;;;;;;;;;;;;;;;;5050625;28;19921;-82
2022/12/15 16:01:53;;;;;;;;;;;;;;;;;;5056340;28;19930;-81
2022/12/15 16:04:41;;;;;;;;;;;;;;;;;;5034995;28;19917;-80
2022/12/15 16:07:27;;;;;;;;;;;;;;;;;;5045511;28;19912;-80
2022/12/15 16:10:14;;;;;;;;;;;;;;;;;;5051011;28;19917;-80
2022/12/15 16:13:01;;;;;;;;;;;;;;;;;;5044214;28;19919;-79
2022/12/15 16:15:47;;;;;;;;;;;;;;;;;;5043309;28;19927;-79
2022/12/15 16:18:34;;;;;;;;;;;;;;;;;;5052884;28;20062;-80
2022/12/15 16:21:20;;;;;;;;;;;;;;;;;;5052789;28;20136;-80
2022/12/15 16:24:06;;;;;;;;;;;;;;;;;;5050164;28;19924;-81
2022/12/15 16:26:53;;;;;;;;;;;;;;;;;;5051090;28;19919;-80
2022/12/15 16:29:39;;;;;;;;;;;;;;;;;;5053610;28;19915;-80
2022/12/15 16:32:26;;;;;;;;;;;;;;;;;;5054122;28;20360;-80
2022/12/15 16:35:12;;;;;;;;;;;;;;;;;;5044349;28;19917;-80
2022/12/15 16:37:59;;;;;;;;;;;;;;;;;;5045134;28;19920;-80
2022/12/15 16:40:45;;;;;;;;;;;;;;;;;;5047963;28;19935;-82
2022/12/15 16:43:32;;;;;;;;;;;;;;;;;;5041425;28;20292;-79
2022/12/15 16:46:19;;;;;;;;;;;;;;;;;;5039855;28;20509;-81
2022/12/15 16:49:05;;;;;;;;;;;;;;;;;;5038139;28;19928;-81
2022/12/15 16:51:52;;;;;;;;;;;;;;;;;;5039090;28;20500;-81
2022/12/15 16:54:38;;;;;;;;;;;;;;;;;;5044523;28;19924;-81
2022/12/15 16:57:25;;;;;;;;;;;;;;;;;;5047834;28;19921;-82
2022/12/15 17:00:11;;;;;;;;;;;;;;;;;;5043952;28;20684;-79
2022/12/15 17:02:58;;;;;;;;;;;;;;;;;;5042649;28;20705;-80
2022/12/15 17:05:44;;;;;;;;;;;;;;;;;;5042325;28;19917;-80
2022/12/15 17:08:31;;;;;;;;;;;;;;;;;;5041257;28;19936;-80
2022/12/15 17:11:17;;;;;;;;;;;;;;;;;;5040513;28;20276;-80
2022/12/15 17:14:04;;;;;;;;;;;;;;;;;;5033418;28;19917;-79
2022/12/15 17:16:50;;;;;;;;;;;;;;;;;;5027204;28;20287;-80
2022/12/15 17:19:37;;;;;;;;;;;;;;;;;;5034607;28;19987;-80
2022/12/15 17:22:24;;;;;;;;;;;;;;;;;;5030083;28;20622;-81
2022/12/15 17:25:10;;;;;;;;;;;;;;;;;;5037511;28;19916;-81
2022/12/15 17:27:57;;;;;;;;;;;;;;;;;;5044343;28;19932;-81
2022/12/15 17:30:43;;;;;;;;;;;;;;;;;;5042935;28;20300;-81
2022/12/15 17:33:35;;;;;;;;;;;;;;;;;;5039130;28;20288;-79
2022/12/15 17:36:22;;;;;;;;;;;;;;;;;;5030907;28;19912;-81
2022/12/15 17:39:08;;;;;;;;;;;;;;;;;;5041973;28;19921;-81
2022/12/15 17:41:55;;;;;;;;;;;;;;;;;;5039745;28;19924;-80
2022/12/15 17:44:45;;;;;;;;;;;;;;;;;;5036634;28;19931;-81
2022/12/15 17:47:32;;;;;;;;;;;;;;;;;;5042495;28;20328;-81
2022/12/15 17:50:19;;;;;;;;;;;;;;;;;;5033853;28;19923;-80
2022/12/15 17:53:05;;;;;;;;;;;;;;;;;;5039305;28;19920;-80
2022/12/15 17:55:52;;;;;;;;;;;;;;;;;;5039595;28;19932;-80
2022/12/15 17:58:38;;;;;;;;;;;;;;;;;;5029497;28;19916;-80
2022/12/15 18:01:25;;;;;;;;;;;;;;;;;;5038762;28;19967;-81
2022/12/15 18:04:11;;;;;;;;;;;;;;;;;;5040011;28;20574;-81
2022/12/15 18:06:58;;;;;;;;;;;;;;;;;;5023128;28;19909;-79
2022/12/15 18:09:44;;;;;;;;;;;;;;;;;;5036738;28;19920;-82
2022/12/15 18:12:31;;;;;;;;;;;;;;;;;;5032079;28;20572;-79
2022/12/15 18:15:18;;;;;;;;;;;;;;;;;;5037746;28;19919;-81
2022/12/15 18:18:04;;;;;;;;;;;;;;;;;;5036066;28;19916;-80
2022/12/15 18:20:51;;;;;;;;;;;;;;;;;;5039926;28;20336;-79
2022/12/15 18:23:37;;;;;;;;;;;;;;;;;;5039493;28;19917;-80
2022/12/15 18:26:24;;;;;;;;;;;;;;;;;;5036813;28;19912;-80
2022/12/15 18:29:10;;;;;;;;;;;;;;;;;;5042220;28;20380;-80
2022/12/15 18:31:57;;;;;;;;;;;;;;;;;;5038396;28;19921;-81
2022/12/15 18:34:43;;;;;;;;;;;;;;;;;;5023066;28;19923;-80
2022/12/15 18:37:30;;;;;;;;;;;;;;;;;;5032786;28;19920;-79
2022/12/15 18:40:16;;;;;;;;;;;;;;;;;;5043193;28;19925;-79
2022/12/15 18:43:03;;;;;;;;;;;;;;;;;;5035009;28;19920;-80
2022/12/15 18:45:49;;;;;;;;;;;;;;;;;;5035090;28;19921;-80
2022/12/15 18:48:36;;;;;;;;;;;;;;;;;;5031266;28;19924;-80
2022/12/15 18:51:22;;;;;;;;;;;;;;;;;;5039862;28;20361;-81
2022/12/15 18:54:08;;;;;;;;;;;;;;;;;;5039104;28;19953;-82
2022/12/15 18:56:55;;;;;;;;;;;;;;;;;;5043763;28;19919;-79
2022/12/15 18:59:42;;;;;;;;;;;;;;;;;;5023604;28;19927;-79
2022/12/15 19:02:28;;;;;;;;;;;;;;;;;;5029418;28;20334;-80
2022/12/15 19:05:31;;;;;;;;;;;;;;;;;;5040364;28;19923;-80
2022/12/15 19:08:18;;;;;;;;;;;;;;;;;;5030589;28;19917;-80
2022/12/15 19:11:05;;;;;;;;;;;;;;;;;;5041476;28;19920;-80
2022/12/15 19:13:51;;;;;;;;;;;;;;;;;;5043905;28;19912;-80
2022/12/15 19:22:50;;;;;;;;;;;;;;;;;;5041682;28;19917;-80
2022/12/15 19:25:36;;;;;;;;;;;;;;;;;;5042790;28;19920;-79
2022/12/15 19:28:23;;;;;;;;;;;;;;;;;;5035933;28;19921;-81
2022/12/15 19:31:09;;;;;;;;;;;;;;;;;;5037186;28;19917;-80
2022/12/15 19:33:56;;;;;;;;;;;;;;;;;;5038831;28;20292;-78
2022/12/15 19:36:42;;;;;;;;;;;;;;;;;;5039373;28;19928;-80
2022/12/15 19:39:29;;;;;;;;;;;;;;;;;;5041633;28;19932;-80
2022/12/15 19:42:15;;;;;;;;;;;;;;;;;;5043173;28;20440;-80
2022/12/15 19:45:02;;;;;;;;;;;;;;;;;;5040834;28;19917;-79
2022/12/15 19:47:48;;;;;;;;;;;;;;;;;;5041667;28;19913;-80
2022/12/15 19:50:35;;;;;;;;;;;;;;;;;;5038282;28;19990;-82
2022/12/15 19:53:25;;;;;;;;;;;;;;;;;;5039977;28;19916;-79
2022/12/15 19:56:11;;;;;;;;;;;;;;;;;;5045006;28;20318;-80
2022/12/15 19:58:58;;;;;;;;;;;;;;;;;;5042386;28;19917;-79
2022/12/15 20:01:44;;;;;;;;;;;;;;;;;;5038583;28;20343;-78
2022/12/15 20:04:32;;;;;;;;;;;;;;;;;;5025752;28;19943;-79
2022/12/15 20:07:19;;;;;;;;;;;;;;;;;;5040857;28;20372;-81
2022/12/15 20:10:05;;;;;;;;;;;;;;;;;;5026282;28;20370;-81
2022/12/15 20:12:52;;;;;;;;;;;;;;;;;;5030564;28;19912;-78
2022/12/15 20:15:38;;;;;;;;;;;;;;;;;;5047968;28;19920;-81
2022/12/15 20:18:25;;;;;;;;;;;;;;;;;;5037120;28;20305;-80
2022/12/15 20:21:12;;;;;;;;;;;;;;;;;;5027666;28;20380;-79
2022/12/15 20:24:00;;;;;;;;;;;;;;;;;;5045382;28;19912;-81
2022/12/15 20:26:47;;;;;;;;;;;;;;;;;;5042789;28;19913;-80
2022/12/15 20:29:33;;;;;;;;;;;;;;;;;;5042251;28;19912;-80
2022/12/15 20:32:20;;;;;;;;;;;;;;;;;;5041681;28;19951;-81
2022/12/15 20:35:07;;;;;;;;;;;;;;;;;;5039443;28;19921;-73
2022/12/15 20:37:53;;;;;;;;;;;;;;;;;;5044431;28;19912;-73
2022/12/15 20:40:39;;;;;;;;;;;;;;;;;;5040636;28;20457;-73
2022/12/15 20:43:26;;;;;;;;;;;;;;;;;;5038358;28;19913;-72
2022/12/15 20:46:13;;;;;;;;;;;;;;;;;;5040741;28;20565;-73
2022/12/15 20:48:59;;;;;;;;;;;;;;;;;;5041527;28;19923;-73
2022/12/15 20:51:46;;;;;;;;;;;;;;;;;;5042144;28;19927;-73
2022/12/15 20:54:32;;;;;;;;;;;;;;;;;;5047600;28;19943;-72
2022/12/15 20:57:19;;;;;;;;;;;;;;;;;;5043185;28;20355;-74
2022/12/15 21:00:05;;;;;;;;;;;;;;;;;;5038011;28;19932;-72
2022/12/15 21:02:52;;;;;;;;;;;;;;;;;;5036465;28;19927;-72
2022/12/15 21:05:38;;;;;;;;;;;;;;;;;;5039470;28;19917;-73
2022/12/15 21:08:25;;;;;;;;;;;;;;;;;;5038683;28;20384;-73
2022/12/15 21:11:12;;;;;;;;;;;;;;;;;;5043301;28;19928;-71
2022/12/15 21:14:02;;;;;;;;;;;;;;;;;;5037257;28;19923;-72
2022/12/15 21:16:49;;;;;;;;;;;;;;;;;;5031929;28;19917;-73
2022/12/15 21:19:35;;;;;;;;;;;;;;;;;;5041327;28;20360;-72
2022/12/15 21:22:22;;;;;;;;;;;;;;;;;;5032845;28;19913;-72
2022/12/15 21:25:08;;;;;;;;;;;;;;;;;;5035228;28;19917;-73
2022/12/15 21:27:55;;;;;;;;;;;;;;;;;;5034112;28;19919;-73